Time;durP1;ratioP1;P1;durP2;ratioP2;P2;SDS_P1;SDS_P2;PMS_P1;PMS_P2;Temp;Humidity;BMP_temperature;BMP_pressure;BME280_temperature;BME280_humidity;BME280_pressure;Samples;Min_cycle;Max_cycle;Signal;HPM_P1;HPM_P2
2021/12/14 00:00:26;;;;;;;20.10;11.40;;;9.30;97.20;;;;;;5110677;27;36085;-63
2021/12/14 00:02:54;;;;;;;18.35;11.77;;;9.40;97.20;;;;;;5112773;27;36950;-63
2021/12/14 00:05:24;;;;;;;16.58;11.18;;;9.30;97.10;;;;;;5112258;27;36441;-63
2021/12/14 00:07:55;;;;;;;17.08;11.20;;;9.30;97.00;;;;;;5112816;27;37293;-63
2021/12/14 00:10:46;;;;;;;16.55;10.77;;;9.30;96.90;;;;;;5112155;27;37198;-62
2021/12/14 00:13:27;;;;;;;16.70;10.77;;;9.40;97.00;;;;;;5111356;27;38837;-64
2021/12/14 00:15:57;;;;;;;19.08;11.45;;;9.40;96.70;;;;;;5112187;27;37270;-63
2021/12/14 00:18:25;;;;;;;16.70;10.80;;;9.40;96.80;;;;;;5111709;27;37905;-64
2021/12/14 00:20:55;;;;;;;17.38;11.50;;;9.40;96.70;;;;;;5112452;27;37094;-56
2021/12/14 00:26:13;;;;;;;16.65;10.45;;;9.40;96.70;;;;;;5111184;27;39701;-56
2021/12/14 00:28:42;;;;;;;17.83;11.00;;;9.40;96.60;;;;;;5113042;27;37236;-56
2021/12/14 00:31:14;;;;;;;15.32;10.45;;;9.40;96.50;;;;;;5112068;27;37695;-56
2021/12/14 00:33:43;;;;;;;16.90;11.00;;;9.40;96.50;;;;;;5112045;27;35553;-56
2021/12/14 00:36:12;;;;;;;17.65;10.63;;;9.50;96.40;;;;;;5112412;27;37564;-56
2021/12/14 00:38:42;;;;;;;17.92;10.90;;;9.50;96.30;;;;;;5111379;27;37396;-56
2021/12/14 00:41:12;;;;;;;16.23;10.85;;;9.40;96.30;;;;;;5110548;27;35925;-56
2021/12/14 00:43:40;;;;;;;17.10;11.13;;;9.40;96.00;;;;;;5113950;27;36721;-56
2021/12/14 00:46:10;;;;;;;17.10;10.07;;;9.40;96.10;;;;;;5115363;27;37612;-56
2021/12/14 00:48:39;;;;;;;18.08;11.65;;;9.40;96.10;;;;;;5115950;27;37441;-56
2021/12/14 00:51:06;;;;;;;20.13;11.18;;;9.40;95.80;;;;;;5115946;27;36616;-56
2021/12/14 00:53:34;;;;;;;16.00;10.32;;;9.40;96.00;;;;;;5114343;27;36870;-56
2021/12/14 00:56:08;;;;;;;16.45;10.23;;;9.40;96.00;;;;;;5114345;27;40028;-55
2021/12/14 00:58:36;;;;;;;18.08;9.77;;;9.40;96.00;;;;;;5114845;27;36086;-56
2021/12/14 01:01:07;;;;;;;17.65;10.30;;;9.30;95.90;;;;;;5110569;27;38501;-56
2021/12/14 01:03:39;;;;;;;17.20;10.95;;;9.30;95.80;;;;;;5115412;27;36830;-56
2021/12/14 01:06:11;;;;;;;17.95;11.27;;;9.30;96.00;;;;;;5113977;27;37166;-56
2021/12/14 01:08:41;;;;;;;17.35;11.38;;;9.30;96.00;;;;;;5115508;27;38089;-56
2021/12/14 01:11:14;;;;;;;16.45;11.20;;;9.30;96.00;;;;;;5115069;27;37466;-56
2021/12/14 01:13:50;;;;;;;19.30;11.43;;;9.30;96.10;;;;;;5114207;27;36777;-55
2021/12/14 01:16:31;;;;;;;21.55;11.82;;;9.30;96.10;;;;;;5113819;27;37559;-56
2021/12/14 01:19:13;;;;;;;21.45;12.23;;;9.30;96.10;;;;;;5114708;27;38299;-56
2021/12/14 01:22:00;;;;;;;17.95;12.20;;;9.30;96.10;;;;;;5115130;27;36038;-64
2021/12/14 01:24:59;;;;;;;16.90;11.50;;;9.30;96.10;;;;;;5115483;27;36096;-64
2021/12/14 01:27:26;;;;;;;21.00;12.07;;;9.30;96.00;;;;;;5114772;27;39894;-64
2021/12/14 01:29:55;;;;;;;17.98;11.13;;;9.30;96.00;;;;;;5113395;27;38859;-63
2021/12/14 01:32:28;;;;;;;18.08;12.32;;;9.20;96.00;;;;;;5115424;27;37894;-64
2021/12/14 01:34:57;;;;;;;19.75;11.77;;;9.30;95.90;;;;;;5114231;27;36585;-64
2021/12/14 01:37:28;;;;;;;18.30;12.82;;;9.30;95.90;;;;;;5114429;27;37683;-63
2021/12/14 01:40:06;;;;;;;16.85;11.45;;;9.30;95.90;;;;;;5113978;27;37243;-64
2021/12/14 01:42:36;;;;;;;17.88;11.73;;;9.20;95.90;;;;;;5114822;27;37085;-64
2021/12/14 01:45:10;;;;;;;20.02;12.57;;;9.30;96.00;;;;;;5113824;27;36331;-64
2021/12/14 01:47:41;;;;;;;17.25;11.63;;;9.30;95.80;;;;;;5114038;27;37937;-64
2021/12/14 01:50:14;;;;;;;17.30;11.55;;;9.30;95.90;;;;;;5113295;27;37170;-64
2021/12/14 01:52:42;;;;;;;19.20;12.63;;;9.40;96.00;;;;;;5114788;27;37281;-64
2021/12/14 01:55:14;;;;;;;17.98;12.18;;;9.30;95.90;;;;;;5113623;27;35468;-64
2021/12/14 01:57:43;;;;;;;18.58;12.27;;;9.30;95.80;;;;;;5114082;27;39003;-64
2021/12/14 02:00:17;;;;;;;19.85;12.43;;;9.30;95.70;;;;;;5112277;27;37305;-63
2021/12/14 02:02:47;;;;;;;20.42;13.52;;;9.30;95.80;;;;;;5113936;27;39120;-63
2021/12/14 02:05:23;;;;;;;19.98;13.05;;;9.30;95.80;;;;;;5113903;27;39299;-63
2021/12/14 02:07:51;;;;;;;21.80;14.40;;;9.30;95.80;;;;;;5113770;27;36326;-64
2021/12/14 02:10:22;;;;;;;18.33;12.75;;;9.30;95.70;;;;;;5115028;27;37499;-64
2021/12/14 02:12:50;;;;;;;23.50;13.82;;;9.30;95.80;;;;;;5112796;27;37137;-64
2021/12/14 02:15:22;;;;;;;18.63;12.88;;;9.30;95.90;;;;;;5112496;27;39026;-63
2021/12/14 02:17:52;;;;;;;19.30;13.32;;;9.30;95.80;;;;;;5113483;27;39494;-64
2021/12/14 02:20:25;;;;;;;20.48;13.00;;;9.30;95.80;;;;;;5114889;27;37271;-64
2021/12/14 02:22:54;;;;;;;18.77;13.63;;;9.30;95.80;;;;;;5113503;27;37235;-64
2021/12/14 02:25:23;;;;;;;20.80;14.00;;;9.30;95.80;;;;;;5114119;27;35818;-64
2021/12/14 02:27:52;;;;;;;23.50;14.88;;;9.30;95.90;;;;;;5113144;27;36348;-64
2021/12/14 02:30:24;;;;;;;20.27;13.77;;;9.30;95.90;;;;;;5114240;27;37596;-64
2021/12/14 02:32:52;;;;;;;22.05;13.93;;;9.30;96.00;;;;;;5114517;27;38382;-64
2021/12/14 02:35:22;;;;;;;20.42;15.18;;;9.30;96.10;;;;;;5114045;27;36741;-64
2021/12/14 02:37:52;;;;;;;20.23;14.27;;;9.30;96.10;;;;;;5113220;27;37996;-64
2021/12/14 02:40:32;;;;;;;20.38;15.43;;;9.20;96.20;;;;;;5114436;27;37057;-63
2021/12/14 02:43:03;;;;;;;22.60;15.32;;;9.20;96.20;;;;;;5112775;27;35965;-63
2021/12/14 02:45:30;;;;;;;22.17;15.75;;;9.30;96.30;;;;;;5114276;27;36734;-64
2021/12/14 02:47:58;;;;;;;22.77;15.15;;;9.20;96.30;;;;;;5112182;27;38775;-64
2021/12/14 02:50:26;;;;;;;23.85;16.02;;;9.20;96.30;;;;;;5113369;27;35916;-64
2021/12/14 02:52:53;;;;;;;22.65;16.05;;;9.20;96.30;;;;;;5113566;27;37277;-64
2021/12/14 02:55:26;;;;;;;23.55;16.48;;;9.30;96.30;;;;;;5113568;27;36688;-64
2021/12/14 02:57:57;;;;;;;23.58;15.90;;;9.20;96.30;;;;;;5111904;27;38365;-64
2021/12/14 03:00:28;;;;;;;25.23;16.35;;;9.20;96.40;;;;;;5112505;27;36697;-64
2021/12/14 03:02:57;;;;;;;24.33;16.35;;;9.20;96.30;;;;;;5110180;27;37296;-64
2021/12/14 03:05:27;;;;;;;25.40;16.48;;;9.20;96.40;;;;;;5111593;27;39160;-63
2021/12/14 03:07:59;;;;;;;22.15;15.93;;;9.10;96.30;;;;;;5113395;27;38044;-63
2021/12/14 03:10:39;;;;;;;24.67;15.88;;;9.10;96.30;;;;;;5112392;27;37544;-63
2021/12/14 03:13:09;;;;;;;24.10;16.20;;;9.20;96.40;;;;;;5112399;27;36105;-63
2021/12/14 03:15:46;;;;;;;24.27;16.25;;;9.20;96.40;;;;;;5112933;27;37645;-63
2021/12/14 03:18:15;;;;;;;21.83;15.93;;;9.20;96.50;;;;;;5112753;27;37656;-64
2021/12/14 03:20:46;;;;;;;25.10;16.98;;;9.10;96.40;;;;;;5113528;27;38209;-64
2021/12/14 03:23:16;;;;;;;25.15;17.63;;;9.10;96.50;;;;;;5112925;27;37332;-64
2021/12/14 03:25:49;;;;;;;23.55;17.10;;;9.10;96.50;;;;;;5113583;27;37717;-64
2021/12/14 03:28:18;;;;;;;27.98;16.95;;;9.10;96.50;;;;;;5112801;27;38914;-64
2021/12/14 03:31:00;;;;;;;27.75;17.25;;;9.10;96.50;;;;;;5112814;27;37041;-63
2021/12/14 03:33:32;;;;;;;24.02;17.17;;;9.10;96.50;;;;;;5112582;27;38411;-64
2021/12/14 03:36:03;;;;;;;23.85;16.40;;;9.10;96.50;;;;;;5112893;27;37021;-64
2021/12/14 03:38:34;;;;;;;23.33;17.15;;;9.10;96.50;;;;;;5112539;27;37525;-64
2021/12/14 03:41:07;;;;;;;26.55;18.65;;;9.10;96.70;;;;;;5112862;27;36147;-64
2021/12/14 03:43:35;;;;;;;25.30;17.50;;;9.20;96.60;;;;;;5112970;27;37790;-64
2021/12/14 03:46:04;;;;;;;25.90;17.52;;;9.20;96.60;;;;;;5111364;27;36791;-64
2021/12/14 03:48:32;;;;;;;24.73;17.60;;;9.20;96.60;;;;;;5112669;27;39058;-64
2021/12/14 03:50:59;;;;;;;23.27;17.15;;;9.20;96.50;;;;;;5112907;27;37087;-64
2021/12/14 03:53:27;;;;;;;25.55;18.15;;;9.20;96.50;;;;;;5112151;27;36884;-64
2021/12/14 03:55:57;;;;;;;24.95;18.48;;;9.10;96.50;;;;;;5111981;27;36580;-64
2021/12/14 03:58:30;;;;;;;25.70;16.95;;;9.20;96.60;;;;;;5112117;27;36362;-63
2021/12/14 04:00:59;;;;;;;;;;;9.20;96.60;;;;;;5112295;27;37487;-64
2021/12/14 04:03:30;;;;;;;26.92;17.40;;;9.20;96.60;;;;;;5111749;27;38362;-64
2021/12/14 04:05:58;;;;;;;25.35;18.15;;;9.20;96.70;;;;;;5112470;27;36096;-64
2021/12/14 04:08:27;;;;;;;27.48;18.35;;;9.20;96.70;;;;;;5110334;27;39386;-64
2021/12/14 04:10:57;;;;;;;25.42;18.00;;;9.20;96.60;;;;;;5112354;27;38378;-64
2021/12/14 04:13:27;;;;;;;26.15;18.38;;;9.20;96.70;;;;;;5112213;27;36166;-64
2021/12/14 04:15:56;;;;;;;27.15;18.30;;;9.20;96.60;;;;;;5112112;27;36483;-64
2021/12/14 04:18:25;;;;;;;28.30;19.30;;;9.20;96.70;;;;;;5115054;27;37782;-64
2021/12/14 04:20:55;;;;;;;24.33;17.85;;;9.20;96.60;;;;;;5114881;27;35963;-64
2021/12/14 04:23:25;;;;;;;24.90;18.27;;;9.30;96.70;;;;;;5116023;27;38103;-64
2021/12/14 04:25:55;;;;;;;27.88;20.35;;;9.30;96.70;;;;;;5114346;27;36406;-64
2021/12/14 04:28:28;;;;;;;24.75;17.20;;;9.30;96.70;;;;;;5116402;27;38599;-64
2021/12/14 04:30:56;;;;;;;27.60;18.92;;;9.30;96.60;;;;;;5114790;27;37255;-63
2021/12/14 04:33:25;;;;;;;26.67;18.08;;;9.30;96.70;;;;;;5115940;27;37213;-64
2021/12/14 04:35:53;;;;;;;24.95;18.33;;;9.30;96.60;;;;;;5114750;27;37206;-64
2021/12/14 04:38:24;;;;;;;26.98;18.55;;;9.30;96.60;;;;;;5115715;27;40432;-64
2021/12/14 04:52:07;;;;;;;30.45;20.35;;;9.30;97.10;;;;;;5115518;27;38357;-64
2021/12/14 04:54:42;;;;;;;32.53;18.77;;;9.30;97.20;;;;;;5114116;27;35976;-64
2021/12/14 04:57:19;;;;;;;32.00;20.17;;;9.30;97.30;;;;;;5115408;27;36467;-63
2021/12/14 04:59:49;;;;;;;26.63;19.15;;;9.30;97.40;;;;;;5114162;27;36410;-63
2021/12/14 05:02:22;;;;;;;30.45;19.83;;;9.30;97.40;;;;;;5112086;27;37318;-64
2021/12/14 05:04:50;;;;;;;27.15;19.23;;;9.30;97.40;;;;;;5112784;27;37470;-64
2021/12/14 05:07:47;;;;;;;27.70;19.80;;;9.30;97.40;;;;;;5115580;27;35674;-64
2021/12/14 05:10:20;;;;;;;29.60;18.13;;;9.30;97.40;;;;;;5114048;27;39129;-64
2021/12/14 05:12:48;;;;;;;25.30;18.83;;;9.30;97.40;;;;;;5114434;27;36946;-63
2021/12/14 05:15:18;;;;;;;29.27;19.38;;;9.30;97.40;;;;;;5113462;27;37149;-64
2021/12/14 05:17:46;;;;;;;26.42;19.25;;;9.30;97.40;;;;;;5115444;27;35749;-63
2021/12/14 05:20:16;;;;;;;29.30;18.90;;;9.20;97.40;;;;;;5114196;27;36406;-64
2021/12/14 05:22:45;;;;;;;28.50;19.58;;;9.30;97.50;;;;;;5115009;27;37384;-64
2021/12/14 05:25:17;;;;;;;27.48;19.63;;;9.20;97.50;;;;;;5114001;27;36998;-64
2021/12/14 05:27:49;;;;;;;27.38;20.27;;;9.30;97.50;;;;;;5113889;27;36552;-64
2021/12/14 05:30:22;;;;;;;32.65;19.13;;;9.20;97.60;;;;;;5113884;27;37238;-63
2021/12/14 05:32:49;;;;;;;32.75;22.27;;;9.20;97.60;;;;;;5114723;27;37282;-64
2021/12/14 05:35:19;;;;;;;29.45;20.30;;;9.20;97.70;;;;;;5113968;27;35942;-64
2021/12/14 05:37:50;;;;;;;27.17;18.08;;;9.20;97.70;;;;;;5114590;27;36732;-63
2021/12/14 05:40:37;;;;;;;29.23;19.95;;;9.20;97.80;;;;;;5114089;27;38136;-64
2021/12/14 05:43:06;;;;;;;28.75;20.42;;;9.20;97.90;;;;;;5114078;27;37398;-63
2021/12/14 05:45:42;;;;;;;30.92;20.77;;;9.20;97.90;;;;;;5112471;27;37056;-64
2021/12/14 05:48:11;;;;;;;29.48;19.30;;;9.20;97.90;;;;;;5115775;27;37544;-64
2021/12/14 05:50:41;;;;;;;33.80;21.67;;;9.20;98.00;;;;;;5113865;27;37531;-64
2021/12/14 05:53:10;;;;;;;31.88;20.52;;;9.20;98.00;;;;;;5114801;27;39118;-63
2021/12/14 05:55:40;;;;;;;28.67;20.20;;;9.20;98.00;;;;;;5113807;27;38637;-64
2021/12/14 05:58:14;;;;;;;30.95;21.40;;;9.20;98.30;;;;;;5113658;27;36689;-64
2021/12/14 06:00:46;;;;;;;26.30;19.38;;;9.20;98.00;;;;;;5111234;27;38130;-64
2021/12/14 06:03:20;;;;;;;27.35;20.23;;;9.20;98.10;;;;;;5112006;27;37358;-63
2021/12/14 06:05:49;;;;;;;29.05;20.35;;;9.20;98.10;;;;;;5112774;27;37327;-64
2021/12/14 06:08:25;;;;;;;29.85;19.98;;;9.20;98.10;;;;;;5113788;27;37754;-64
2021/12/14 06:10:54;;;;;;;28.65;19.58;;;9.20;98.10;;;;;;5113264;27;38496;-63
2021/12/14 06:13:21;;;;;;;29.65;20.25;;;9.20;98.10;;;;;;5112697;27;37430;-64
2021/12/14 06:15:50;;;;;;;28.75;20.20;;;9.20;98.10;;;;;;5113301;27;39525;-64
2021/12/14 06:18:24;;;;;;;29.02;20.92;;;9.20;98.00;;;;;;5113300;27;37114;-56
2021/12/14 06:20:51;;;;;;;;;;;9.20;98.00;;;;;;5114162;27;37446;-56
2021/12/14 06:23:24;;;;;;;26.25;18.90;;;9.20;98.10;;;;;;5113629;27;36176;-56
2021/12/14 06:25:52;;;;;;;30.52;20.27;;;9.20;98.00;;;;;;5113966;27;40178;-56
2021/12/14 06:28:25;;;;;;;31.75;21.75;;;9.20;98.00;;;;;;5112921;27;36772;-56
2021/12/14 06:30:55;;;;;;;32.67;22.02;;;9.30;98.00;;;;;;5113872;27;37542;-55
2021/12/14 06:33:23;;;;;;;30.23;21.17;;;9.20;98.00;;;;;;5111709;27;37380;-56
2021/12/14 06:35:54;;;;;;;30.98;21.65;;;9.20;98.00;;;;;;5111652;27;37272;-56
2021/12/14 06:38:26;;;;;;;29.48;20.88;;;9.30;98.10;;;;;;5112564;27;35595;-56
2021/12/14 06:41:06;;;;;;;31.67;21.55;;;9.20;98.10;;;;;;5111560;27;38596;-56
2021/12/14 06:43:36;;;;;;;30.25;22.52;;;9.20;98.10;;;;;;5114095;27;36324;-56
2021/12/14 06:46:08;;;;;;;31.02;21.77;;;9.20;98.10;;;;;;5113930;27;37887;-56
2021/12/14 06:48:39;;;;;;;32.65;21.23;;;9.20;98.10;;;;;;5113566;27;37230;-56
2021/12/14 06:51:10;;;;;;;30.95;21.77;;;9.20;98.10;;;;;;5113625;27;37517;-56
2021/12/14 06:53:38;;;;;;;32.10;23.23;;;9.30;98.20;;;;;;5112070;27;37494;-56
2021/12/14 06:56:07;;;;;;;31.50;22.38;;;9.30;98.10;;;;;;5113932;27;35947;-56
2021/12/14 06:58:38;;;;;;;33.22;22.25;;;9.30;98.10;;;;;;5112563;27;36711;-56
2021/12/14 07:01:09;;;;;;;32.72;23.13;;;9.30;98.10;;;;;;5112047;27;38705;-56
2021/12/14 07:03:43;;;;;;;29.05;21.83;;;9.30;98.20;;;;;;5110087;27;37130;-56
2021/12/14 07:06:14;;;;;;;35.20;22.17;;;9.20;98.20;;;;;;5113133;27;36960;-56
2021/12/14 07:08:42;;;;;;;33.03;23.05;;;9.20;98.20;;;;;;5113254;27;36449;-56
2021/12/14 07:11:09;;;;;;;32.08;23.05;;;9.30;98.30;;;;;;5112116;27;38261;-56
2021/12/14 07:13:39;;;;;;;31.98;22.90;;;9.30;98.30;;;;;;5110411;27;39322;-56
2021/12/14 07:16:19;;;;;;;31.00;22.65;;;9.20;98.30;;;;;;5111161;27;37087;-56
2021/12/14 07:18:51;;;;;;;32.80;23.42;;;9.30;98.40;;;;;;5110982;27;39871;-56
2021/12/14 07:21:42;;;;;;;34.45;23.95;;;9.30;98.40;;;;;;5111579;27;38531;-56
2021/12/14 07:24:42;;;;;;;36.45;23.70;;;9.30;98.40;;;;;;5111119;27;38734;-56
2021/12/14 07:27:27;;;;;;;35.80;23.50;;;9.30;98.50;;;;;;5111239;27;37380;-56
2021/12/14 07:30:11;;;;;;;37.92;23.65;;;9.30;98.50;;;;;;5111727;27;38056;-56
2021/12/14 07:32:45;;;;;;;34.78;23.13;;;9.20;98.50;;;;;;5112327;27;36362;-56
2021/12/14 07:35:48;;;;;;;38.85;24.13;;;9.30;98.60;;;;;;5113041;27;37475;-56
2021/12/14 07:38:26;;;;;;;36.78;24.52;;;9.30;98.60;;;;;;5113005;27;37200;-56
2021/12/14 07:40:58;;;;;;;37.13;25.70;;;9.30;98.70;;;;;;5113623;27;38164;-56
2021/12/14 07:43:29;;;;;;;36.40;24.08;;;9.20;98.70;;;;;;5113338;27;37552;-56
2021/12/14 07:45:57;;;;;;;42.08;27.77;;;9.30;98.70;;;;;;5112222;27;36083;-56
2021/12/14 07:48:43;;;;;;;42.42;26.33;;;9.30;98.80;;;;;;5113231;27;35895;-56
2021/12/14 07:51:11;;;;;;;36.40;24.85;;;9.20;98.80;;;;;;5113103;27;36954;-56
2021/12/14 07:53:41;;;;;;;44.03;28.25;;;9.00;98.80;;;;;;5116696;27;39104;-56
2021/12/14 07:56:10;;;;;;;36.83;25.10;;;9.30;98.90;;;;;;5112558;27;38254;-56
2021/12/14 07:58:40;;;;;;;39.08;25.55;;;9.30;98.90;;;;;;5108674;27;37032;-56
2021/12/14 08:01:09;;;;;;;39.92;26.20;;;9.30;98.90;;;;;;5111827;27;37044;-56
2021/12/14 08:03:39;;;;;;;40.25;25.55;;;9.30;99.00;;;;;;5113124;27;36290;-56
2021/12/14 08:06:10;;;;;;;41.05;26.95;;;9.20;98.90;;;;;;5113060;27;37318;-56
2021/12/14 08:08:45;;;;;;;43.72;26.20;;;9.30;99.20;;;;;;5113911;27;37174;-56
2021/12/14 08:11:41;;;;;;;40.72;25.38;;;9.30;99.10;;;;;;5113513;27;35663;-56
2021/12/14 08:14:13;;;;;;;44.90;27.60;;;9.30;99.10;;;;;;5112825;27;37473;-56
2021/12/14 08:16:43;;;;;;;43.45;27.60;;;9.30;99.10;;;;;;5114508;27;37550;-56
2021/12/14 08:19:23;;;;;;;43.08;26.95;;;9.30;99.10;;;;;;5113322;27;38165;-56
2021/12/14 08:21:51;;;;;;;38.63;24.75;;;9.40;99.10;;;;;;5113286;27;37654;-56
2021/12/14 08:24:18;;;;;;;37.97;24.08;;;9.30;99.10;;;;;;5113833;27;37049;-56
2021/12/14 08:26:49;;;;;;;39.05;25.25;;;9.40;99.10;;;;;;5112953;27;37488;-56
2021/12/14 08:29:20;;;;;;;40.03;25.63;;;9.40;99.10;;;;;;5114148;27;37691;-56
2021/12/14 08:31:50;;;;;;;42.45;25.70;;;9.40;99.10;;;;;;5112297;27;36200;-56
2021/12/14 08:34:22;;;;;;;45.10;26.73;;;9.40;99.20;;;;;;5115088;27;37817;-56
2021/12/14 08:36:54;;;;;;;39.05;25.92;;;9.40;99.20;;;;;;5114861;27;37444;-56
2021/12/14 08:39:25;;;;;;;38.90;25.42;;;9.40;99.20;;;;;;5113596;27;37155;-56
2021/12/14 08:42:11;;;;;;;43.17;26.35;;;9.50;99.20;;;;;;5112806;27;37036;-56
2021/12/14 08:44:41;;;;;;;41.10;25.98;;;9.40;99.20;;;;;;5113899;27;37610;-56
2021/12/14 08:47:12;;;;;;;42.17;26.30;;;9.50;99.20;;;;;;5114019;27;36166;-56
2021/12/14 08:49:43;;;;;;;40.33;25.23;;;9.50;99.20;;;;;;5113271;27;36751;-56
2021/12/14 08:52:11;;;;;;;38.17;25.75;;;9.50;99.20;;;;;;5113867;27;37000;-56
2021/12/14 08:54:41;;;;;;;38.92;25.20;;;9.50;99.20;;;;;;5112314;27;37596;-56
2021/12/14 08:57:13;;;;;;;41.65;25.00;;;9.50;99.20;;;;;;5112556;27;37328;-56
2021/12/14 08:59:43;;;;;;;38.92;26.65;;;9.50;99.20;;;;;;5113873;27;35983;-56
2021/12/14 09:02:13;;;;;;;38.35;24.30;;;9.50;99.20;;;;;;5111302;27;40159;-56
2021/12/14 09:04:48;;;;;;;38.22;25.42;;;9.50;99.40;;;;;;5113199;27;37477;-56
2021/12/14 09:07:19;;;;;;;38.80;25.77;;;9.50;99.10;;;;;;5114211;27;39338;-56
2021/12/14 09:09:47;;;;;;;40.13;25.95;;;9.50;99.10;;;;;;5114550;27;38587;-56
2021/12/14 09:12:24;;;;;;;51.15;26.80;;;9.50;99.20;;;;;;5113753;27;37328;-56
2021/12/14 09:14:54;;;;;;;44.00;26.52;;;9.60;99.20;;;;;;5113773;27;37488;-56
2021/12/14 09:17:23;;;;;;;45.47;26.35;;;9.60;99.20;;;;;;5113755;27;36084;-56
2021/12/14 09:19:55;;;;;;;44.17;26.17;;;9.60;99.20;;;;;;5114062;27;38195;-56
2021/12/14 09:22:25;;;;;;;40.00;26.13;;;9.60;99.20;;;;;;5113672;27;38277;-56
2021/12/14 09:24:54;;;;;;;45.42;25.25;;;9.60;99.20;;;;;;5113137;27;36368;-56
2021/12/14 09:27:26;;;;;;;41.42;26.33;;;9.60;99.20;;;;;;5111635;27;38833;-56
2021/12/14 09:29:54;;;;;;;45.97;26.83;;;9.70;99.30;;;;;;5111637;27;37235;-56
2021/12/14 09:32:27;;;;;;;44.13;25.52;;;9.60;99.20;;;;;;5112633;27;36517;-56
2021/12/14 09:34:56;;;;;;;45.97;26.52;;;9.60;99.20;;;;;;5113759;27;38447;-56
2021/12/14 09:37:25;;;;;;;44.88;27.65;;;9.70;99.20;;;;;;5112875;27;38318;-56
2021/12/14 09:39:58;;;;;;;39.17;26.38;;;9.70;99.20;;;;;;5113749;27;38315;-55
2021/12/14 09:42:29;;;;;;;37.28;25.17;;;9.70;99.20;;;;;;5112137;27;38585;-56
2021/12/14 09:45:00;;;;;;;44.88;27.42;;;9.60;99.10;;;;;;5112120;27;38889;-55
2021/12/14 09:47:31;;;;;;;41.40;27.80;;;9.70;99.20;;;;;;5113435;27;38116;-56
2021/12/14 09:50:04;;;;;;;45.80;28.75;;;9.70;99.20;;;;;;5112426;27;37180;-56
2021/12/14 09:52:35;;;;;;;42.78;27.40;;;9.70;99.20;;;;;;5113692;27;37079;-56
2021/12/14 09:55:05;;;;;;;44.97;27.15;;;9.70;99.30;;;;;;5113379;27;37637;-56
2021/12/14 09:57:36;;;;;;;44.53;25.90;;;9.70;99.30;;;;;;5112939;27;38338;-56
2021/12/14 10:00:12;;;;;;;43.40;28.15;;;9.70;99.30;;;;;;5113191;27;37052;-56
2021/12/14 10:02:42;;;;;;;42.72;26.83;;;9.70;99.40;;;;;;5112883;27;38608;-56
2021/12/14 10:05:17;;;;;;;43.95;26.38;;;9.70;99.40;;;;;;5112669;27;38791;-56
2021/12/14 10:07:46;;;;;;;40.92;26.10;;;9.70;99.40;;;;;;5112859;27;37260;-56
2021/12/14 10:10:17;;;;;;;42.03;26.05;;;9.70;99.40;;;;;;5113833;27;35895;-56
2021/12/14 10:12:51;;;;;;;42.20;28.10;;;9.70;99.40;;;;;;5112179;27;35580;-56
2021/12/14 10:15:25;;;;;;;42.80;27.00;;;9.70;99.50;;;;;;5111882;27;37668;-56
2021/12/14 10:17:55;;;;;;;44.05;27.15;;;9.70;99.50;;;;;;5113535;27;35666;-56
2021/12/14 10:20:27;;;;;;;37.55;24.90;;;9.70;99.60;;;;;;5113931;27;35885;-56
2021/12/14 10:22:55;;;;;;;44.05;25.65;;;9.70;99.50;;;;;;5112403;27;37862;-56
2021/12/14 10:25:26;;;;;;;42.40;26.33;;;9.70;99.50;;;;;;5113845;27;37529;-56
2021/12/14 10:27:56;;;;;;;38.60;24.20;;;9.70;99.60;;;;;;5111641;27;36101;-56
2021/12/14 10:30:27;;;;;;;41.97;25.70;;;9.70;99.60;;;;;;5112865;27;37147;-56
2021/12/14 10:32:55;;;;;;;42.63;24.52;;;9.70;99.60;;;;;;5112014;27;38185;-56
2021/12/14 10:35:32;;;;;;;40.90;25.05;;;9.80;99.60;;;;;;5112262;27;36227;-56
2021/12/14 10:38:17;;;;;;;39.30;24.88;;;9.70;99.50;;;;;;5112378;27;36053;-56
2021/12/14 10:43:34;;;;;;;36.60;24.02;;;9.70;99.60;;;;;;5112327;27;36651;-56
2021/12/14 10:46:05;;;;;;;39.38;24.00;;;9.70;99.70;;;;;;5111635;27;37130;-56
2021/12/14 10:48:35;;;;;;;35.20;24.63;;;9.80;99.70;;;;;;5111113;27;36107;-57
2021/12/14 10:51:07;;;;;;;37.15;22.95;;;9.80;99.70;;;;;;5111796;27;38221;-56
2021/12/14 10:53:35;;;;;;;34.28;22.00;;;9.80;99.80;;;;;;5111392;27;37631;-56
2021/12/14 10:56:09;;;;;;;36.50;22.77;;;9.80;99.70;;;;;;5111429;27;37405;-56
2021/12/14 10:58:38;;;;;;;37.38;23.88;;;9.90;99.80;;;;;;5109644;27;35943;-56
2021/12/14 11:01:10;;;;;;;36.92;23.55;;;9.90;99.80;;;;;;5111316;27;36747;-56
2021/12/14 11:03:44;;;;;;;33.78;22.85;;;9.90;99.70;;;;;;5111404;27;36662;-56
2021/12/14 11:06:20;;;;;;;34.38;22.17;;;10.00;99.70;;;;;;5111013;27;37517;-56
2021/12/14 11:08:59;;;;;;;36.70;22.42;;;10.00;99.70;;;;;;5111765;27;37061;-56
2021/12/14 11:11:32;;;;;;;30.10;20.45;;;10.00;99.80;;;;;;5111413;27;35866;-56
2021/12/14 11:14:01;;;;;;;32.75;22.15;;;10.00;99.80;;;;;;5112228;27;36951;-56
2021/12/14 11:18:08;;;;;;;33.80;21.58;;;10.00;99.80;;;;;;5111814;27;36339;-56
2021/12/14 11:19:31;;;;;;;31.45;20.33;;;10.00;99.70;;;;;;5111266;27;38883;-56
2021/12/14 11:22:10;;;;;;;31.52;21.00;;;10.00;99.70;;;;;;5111431;27;37337;-56
2021/12/14 11:24:39;;;;;;;32.92;20.38;;;10.00;99.80;;;;;;5112258;27;37802;-56
2021/12/14 11:27:14;;;;;;;29.88;19.98;;;10.00;99.70;;;;;;5112171;27;37348;-56
2021/12/14 11:29:41;;;;;;;29.98;20.30;;;10.10;99.80;;;;;;5112952;27;37384;-57
2021/12/14 11:32:17;;;;;;;32.03;20.27;;;10.10;99.80;;;;;;5112791;27;37745;-56
2021/12/14 11:34:46;;;;;;;29.70;18.92;;;10.10;99.80;;;;;;5113617;27;36561;-56
2021/12/14 11:37:32;;;;;;;33.40;20.23;;;10.10;99.80;;;;;;5113803;27;20129;-56
2021/12/14 11:40:02;;;;;;;31.98;19.45;;;10.10;99.80;;;;;;5108115;27;37390;-56
2021/12/14 11:42:30;;;;;;;29.02;18.33;;;10.10;99.70;;;;;;5112594;27;38818;-56
2021/12/14 11:45:01;;;;;;;33.60;18.73;;;10.10;99.80;;;;;;5114047;27;36481;-57
2021/12/14 11:47:46;;;;;;;26.05;17.50;;;10.10;99.80;;;;;;5112779;27;37347;-56
2021/12/14 11:50:19;;;;;;;31.50;18.55;;;10.10;99.80;;;;;;5113552;27;40068;-56
2021/12/14 11:52:52;;;;;;;29.60;18.15;;;10.10;99.80;;;;;;5112221;27;36788;-64
2021/12/14 11:55:34;;;;;;;25.50;16.25;;;10.10;99.90;;;;;;5111802;27;36420;-65
2021/12/14 11:58:21;;;;;;;26.13;16.33;;;10.10;99.90;;;;;;5112172;27;37715;-64
2021/12/14 12:00:54;;;;;;;28.35;17.08;;;10.10;99.90;;;;;;5099004;27;38339;-65
2021/12/14 12:03:36;;;;;;;25.20;15.80;;;10.10;99.90;;;;;;5110690;27;38550;-63
2021/12/14 12:06:13;;;;;;;26.73;15.60;;;10.10;99.90;;;;;;5113484;27;36641;-64
2021/12/14 12:11:39;;;;;;;23.85;14.82;;;10.10;99.90;;;;;;5113469;27;38992;-65
2021/12/14 12:14:22;;;;;;;24.90;14.30;;;10.10;99.90;;;;;;5112296;27;36803;-64
2021/12/14 12:16:51;;;;;;;26.10;16.00;;;10.10;99.90;;;;;;5113196;27;36857;-65
2021/12/14 12:19:22;;;;;;;23.63;14.95;;;10.10;99.90;;;;;;5111796;27;37048;-64
2021/12/14 12:21:50;;;;;;;22.38;14.15;;;10.10;99.90;;;;;;5113038;27;37909;-64
2021/12/14 12:24:42;;;;;;;24.15;13.93;;;10.20;99.90;;;;;;5110897;27;37068;-64
2021/12/14 12:27:26;;;;;;;21.02;12.77;;;10.20;99.90;;;;;;5112406;27;38018;-65
2021/12/14 12:30:22;;;;;;;22.08;11.98;;;10.20;99.90;;;;;;5112465;27;37379;-64
2021/12/14 12:32:50;;;;;;;17.77;11.35;;;10.20;99.90;;;;;;5110540;27;37894;-64
2021/12/14 12:35:24;;;;;;;19.38;11.95;;;10.20;99.90;;;;;;5112678;27;35586;-65
2021/12/14 12:37:52;;;;;;;22.05;12.68;;;10.20;99.90;;;;;;5110179;27;35560;-65
2021/12/14 12:40:37;;;;;;;22.50;11.85;;;10.20;99.90;;;;;;5115946;27;36401;-65
2021/12/14 12:43:31;;;;;;;19.33;11.82;;;10.20;99.90;;;;;;5114002;27;37768;-65
2021/12/14 12:46:04;;;;;;;17.88;11.52;;;10.20;99.90;;;;;;5095885;27;39129;-65
2021/12/14 12:48:55;;;;;;;18.67;11.67;;;10.20;99.90;;;;;;5113176;27;35473;-64
2021/12/14 12:51:43;;;;;;;18.85;11.70;;;10.20;99.90;;;;;;5113694;27;37750;-65
2021/12/14 12:54:13;;;;;;;21.73;11.27;;;10.20;99.90;;;;;;5112966;27;36097;-64
2021/12/14 12:56:43;;;;;;;19.50;11.82;;;10.30;99.90;;;;;;5114927;27;38982;-64
2021/12/14 12:59:12;;;;;;;19.45;10.88;;;10.30;99.90;;;;;;5113790;27;35615;-65
2021/12/14 13:01:40;;;;;;;17.63;10.65;;;10.30;99.90;;;;;;5114428;27;37341;-65
2021/12/14 13:04:08;;;;;;;16.30;10.88;;;10.30;99.90;;;;;;5114913;27;36997;-65
2021/12/14 13:06:35;;;;;;;19.38;11.25;;;10.30;99.90;;;;;;5114991;27;38629;-65
2021/12/14 13:09:03;;;;;;;14.70;10.00;;;10.30;99.90;;;;;;5113131;27;37657;-64
2021/12/14 13:11:35;;;;;;;17.42;10.65;;;10.30;99.90;;;;;;5115390;27;38582;-64
2021/12/14 13:14:07;;;;;;;16.98;10.43;;;10.30;99.90;;;;;;5114022;27;37415;-65
2021/12/14 13:16:37;;;;;;;15.93;9.98;;;10.30;99.90;;;;;;5115545;27;38415;-64
2021/12/14 13:19:10;;;;;;;14.43;9.27;;;10.40;99.90;;;;;;5114442;27;36706;-64
2021/12/14 13:21:46;;;;;;;15.43;8.95;;;10.30;99.90;;;;;;5115348;27;37654;-65